sensor_id;sensor_type;location;lat;lon;timestamp;pressure;altitude;pressure_sealevel;temperature;humidity
43681;BME280;29281;50.356;30.894;2023-05-16T00:00:49;100193.61;;;18.63;45.35
43681;BME280;29281;50.356;30.894;2023-05-16T00:02:00;100187.89;;;18.66;44.90
43681;BME280;29281;50.356;30.894;2023-05-16T00:03:00;100196.65;;;18.68;45.07
43681;BME280;29281;50.356;30.894;2023-05-16T00:04:06;100189.73;;;18.66;45.48
43681;BME280;29281;50.356;30.894;2023-05-16T00:05:13;100192.12;;;18.69;45.02
43681;BME280;29281;50.356;30.894;2023-05-16T00:06:17;100187.38;;;18.63;45.99
43681;BME280;29281;50.356;30.894;2023-05-16T00:07:20;100196.02;;;18.56;45.46
43681;BME280;29281;50.356;30.894;2023-05-16T00:08:23;100187.95;;;18.56;45.18
43681;BME280;29281;50.356;30.894;2023-05-16T00:09:27;100196.60;;;18.60;45.34
43681;BME280;29281;50.356;30.894;2023-05-16T00:10:30;100191.65;;;18.55;45.79
43681;BME280;29281;50.356;30.894;2023-05-16T00:11:33;100197.17;;;18.54;45.72
43681;BME280;29281;50.356;30.894;2023-05-16T00:12:38;100199.33;;;18.50;46.06
43681;BME280;29281;50.356;30.894;2023-05-16T00:13:43;100191.41;;;18.49;46.17
43681;BME280;29281;50.356;30.894;2023-05-16T00:14:47;100191.41;;;18.49;45.92
43681;BME280;29281;50.356;30.894;2023-05-16T00:15:54;100198.12;;;18.45;46.25
43681;BME280;29281;50.356;30.894;2023-05-16T00:17:01;100197.42;;;18.43;46.34
43681;BME280;29281;50.356;30.894;2023-05-16T00:18:07;100195.73;;;18.42;46.17
43681;BME280;29281;50.356;30.894;2023-05-16T00:19:10;100198.58;;;18.40;46.56
43681;BME280;29281;50.356;30.894;2023-05-16T00:20:13;100196.87;;;18.39;46.48
43681;BME280;29281;50.356;30.894;2023-05-16T00:21:19;100196.48;;;18.34;46.86
43681;BME280;29281;50.356;30.894;2023-05-16T00:22:24;100183.68;;;18.28;46.64
43681;BME280;29281;50.356;30.894;2023-05-16T00:23:28;100196.82;;;18.31;47.13
43681;BME280;29281;50.356;30.894;2023-05-16T00:24:33;100197.97;;;18.28;47.13
43681;BME280;29281;50.356;30.894;2023-05-16T00:25:36;100192.59;;;18.28;46.66
43681;BME280;29281;50.356;30.894;2023-05-16T00:26:40;100193.98;;;18.33;47.52
43681;BME280;29281;50.356;30.894;2023-05-16T00:27:46;100190.59;;;18.31;46.81
43681;BME280;29281;50.356;30.894;2023-05-16T00:28:50;100193.73;;;18.26;46.78
43681;BME280;29281;50.356;30.894;2023-05-16T00:29:55;100194.28;;;18.30;46.37
43681;BME280;29281;50.356;30.894;2023-05-16T00:30:59;100188.91;;;18.30;46.77
43681;BME280;29281;50.356;30.894;2023-05-16T00:32:02;100190.90;;;18.27;47.36
43681;BME280;29281;50.356;30.894;2023-05-16T00:33:05;100197.57;;;18.23;47.31
43681;BME280;29281;50.356;30.894;2023-05-16T00:34:11;100192.20;;;18.23;46.85
43681;BME280;29281;50.356;30.894;2023-05-16T00:35:15;100194.27;;;18.12;47.28
43681;BME280;29281;50.356;30.894;2023-05-16T00:36:18;100194.13;;;18.13;47.61
43681;BME280;29281;50.356;30.894;2023-05-16T00:37:24;100197.41;;;18.07;47.23
43681;BME280;29281;50.356;30.894;2023-05-16T00:38:28;100192.73;;;18.09;47.12
43681;BME280;29281;50.356;30.894;2023-05-16T00:39:34;100189.34;;;18.07;47.68
43681;BME280;29281;50.356;30.894;2023-05-16T00:40:37;100191.11;;;17.99;47.92
43681;BME280;29281;50.356;30.894;2023-05-16T00:41:41;100189.86;;;17.93;48.07
43681;BME280;29281;50.356;30.894;2023-05-16T00:42:44;100192.00;;;17.89;48.36
43681;BME280;29281;50.356;30.894;2023-05-16T00:43:48;100189.86;;;17.93;47.80
43681;BME280;29281;50.356;30.894;2023-05-16T00:44:52;100198.08;;;17.91;48.69
43681;BME280;29281;50.356;30.894;2023-05-16T00:45:55;100194.17;;;17.86;48.56
43681;BME280;29281;50.356;30.894;2023-05-16T00:47:00;100195.75;;;17.79;49.46
43681;BME280;29281;50.356;30.894;2023-05-16T00:48:04;100191.81;;;17.73;49.03
43681;BME280;29281;50.356;30.894;2023-05-16T00:49:08;100200.72;;;17.74;49.19
43681;BME280;29281;50.356;30.894;2023-05-16T00:50:11;100193.66;;;17.73;49.27
43681;BME280;29281;50.356;30.894;2023-05-16T00:51:16;100198.73;;;17.76;49.48
43681;BME280;29281;50.356;30.894;2023-05-16T00:52:20;100200.58;;;17.75;49.26
43681;BME280;29281;50.356;30.894;2023-05-16T00:53:25;100198.03;;;17.74;48.87
43681;BME280;29281;50.356;30.894;2023-05-16T00:54:29;100196.05;;;17.76;49.49
43681;BME280;29281;50.356;30.894;2023-05-16T00:55:33;100198.03;;;17.74;48.75
43681;BME280;29281;50.356;30.894;2023-05-16T00:56:39;100201.72;;;17.73;48.94
43681;BME280;29281;50.356;30.894;2023-05-16T00:57:47;100194.42;;;17.65;49.53
43681;BME280;29281;50.356;30.894;2023-05-16T00:58:50;100194.56;;;17.64;49.07
43681;BME280;29281;50.356;30.894;2023-05-16T00:59:53;100198.95;;;17.65;49.58
43681;BME280;29281;50.356;30.894;2023-05-16T01:00:57;100191.00;;;17.63;49.71
43681;BME280;29281;50.356;30.894;2023-05-16T01:01:59;100198.09;;;17.64;49.70
43681;BME280;29281;50.356;30.894;2023-05-16T01:03:04;100192.98;;;17.61;49.20
43681;BME280;29281;50.356;30.894;2023-05-16T01:04:07;100192.14;;;17.61;49.64
43681;BME280;29281;50.356;30.894;2023-05-16T01:05:10;100192.58;;;17.66;49.17
43681;BME280;29281;50.356;30.894;2023-05-16T01:06:14;100195.97;;;17.58;50.05
43681;BME280;29281;50.356;30.894;2023-05-16T01:07:17;100188.91;;;17.57;49.98
43681;BME280;29281;50.356;30.894;2023-05-16T01:08:23;100192.84;;;17.63;49.30
43681;BME280;29281;50.356;30.894;2023-05-16T01:09:26;100190.16;;;17.63;49.94
43681;BME280;29281;50.356;30.894;2023-05-16T01:10:38;100184.38;;;17.57;49.89
43681;BME280;29281;50.356;30.894;2023-05-16T01:11:55;100188.23;;;17.55;50.03
43681;BME280;29281;50.356;30.894;2023-05-16T01:13:00;100183.30;;;17.50;49.62
43681;BME280;29281;50.356;30.894;2023-05-16T01:15:27;100189.37;;;17.52;49.29
43681;BME280;29281;50.356;30.894;2023-05-16T01:16:49;100184.70;;;17.54;49.46
43681;BME280;29281;50.356;30.894;2023-05-16T01:20:32;100176.61;;;17.64;49.61
43681;BME280;29281;50.356;30.894;2023-05-16T01:23:53;100180.84;;;17.67;48.63
43681;BME280;29281;50.356;30.894;2023-05-16T01:27:25;100171.98;;;17.56;49.95
43681;BME280;29281;50.356;30.894;2023-05-16T01:28:32;100175.03;;;17.62;49.89
43681;BME280;29281;50.356;30.894;2023-05-16T01:29:37;100182.39;;;17.59;49.09
43681;BME280;29281;50.356;30.894;2023-05-16T01:30:40;100184.78;;;17.63;49.38
43681;BME280;29281;50.356;30.894;2023-05-16T01:31:44;100172.94;;;17.65;49.85
43681;BME280;29281;50.356;30.894;2023-05-16T01:32:47;100179.70;;;17.59;50.14
43681;BME280;29281;50.356;30.894;2023-05-16T01:33:51;100184.78;;;17.63;49.13
43681;BME280;29281;50.356;30.894;2023-05-16T01:34:55;100183.53;;;17.67;49.27
43681;BME280;29281;50.356;30.894;2023-05-16T01:36:03;100182.10;;;17.63;49.59
43681;BME280;29281;50.356;30.894;2023-05-16T01:37:15;100176.88;;;17.61;49.59
43681;BME280;29281;50.356;30.894;2023-05-16T01:38:17;100181.69;;;17.57;50.00
43681;BME280;29281;50.356;30.894;2023-05-16T01:42:55;100182.86;;;17.55;50.42
43681;BME280;29281;50.356;30.894;2023-05-16T01:44:01;100177.38;;;17.47;49.91
43681;BME280;29281;50.356;30.894;2023-05-16T01:45:14;100179.36;;;17.45;50.62
43681;BME280;29281;50.356;30.894;2023-05-16T01:46:24;100179.21;;;17.46;49.83
43681;BME280;29281;50.356;30.894;2023-05-16T01:47:22;100186.22;;;17.57;49.66
43681;BME280;29281;50.356;30.894;2023-05-16T01:48:34;100173.63;;;17.57;49.55
43681;BME280;29281;50.356;30.894;2023-05-16T01:50:45;100175.95;;;17.52;50.22
43681;BME280;29281;50.356;30.894;2023-05-16T01:51:50;100176.09;;;17.51;50.52
43681;BME280;29281;50.356;30.894;2023-05-16T01:53:06;100183.86;;;17.54;50.24
43681;BME280;29281;50.356;30.894;2023-05-16T01:54:12;100178.63;;;17.52;50.21
43681;BME280;29281;50.356;30.894;2023-05-16T01:55:30;100176.94;;;17.51;50.81
43681;BME280;29281;50.356;30.894;2023-05-16T01:56:33;100179.06;;;17.48;50.55
43681;BME280;29281;50.356;30.894;2023-05-16T01:57:37;100181.89;;;17.46;50.38
43681;BME280;29281;50.356;30.894;2023-05-16T01:58:42;100176.44;;;17.38;51.66
43681;BME280;29281;50.356;30.894;2023-05-16T01:59:49;100178.71;;;17.33;51.50
43681;BME280;29281;50.356;30.894;2023-05-16T02:00:55;100176.88;;;17.34;51.10
43681;BME280;29281;50.356;30.894;2023-05-16T02:02:01;100170.22;;;17.38;50.75
43681;BME280;29281;50.356;30.894;2023-05-16T02:03:05;100173.75;;;17.38;50.83
43681;BME280;29281;50.356;30.894;2023-05-16T02:04:09;100177.14;;;17.40;50.65
43681;BME280;29281;50.356;30.894;2023-05-16T02:05:12;100171.66;;;17.32;50.84
43681;BME280;29281;50.356;30.894;2023-05-16T02:06:18;100164.20;;;17.26;51.26
43681;BME280;29281;50.356;30.894;2023-05-16T02:07:22;100171.23;;;17.27;51.16
43681;BME280;29281;50.356;30.894;2023-05-16T02:08:27;100167.88;;;17.25;51.51
43681;BME280;29281;50.356;30.894;2023-05-16T02:09:31;100170.34;;;17.09;51.58
43681;BME280;29281;50.356;30.894;2023-05-16T02:10:35;100174.86;;;17.08;51.38
43681;BME280;29281;50.356;30.894;2023-05-16T02:11:38;100167.95;;;17.06;51.13
43681;BME280;29281;50.356;30.894;2023-05-16T02:12:41;100168.80;;;17.06;51.04
43681;BME280;29281;50.356;30.894;2023-05-16T02:13:43;100166.39;;;17.03;51.47
43681;BME280;29281;50.356;30.894;2023-05-16T02:14:47;100161.07;;;16.94;52.36
43681;BME280;29281;50.356;30.894;2023-05-16T02:15:51;100163.47;;;16.87;52.07
43681;BME280;29281;50.356;30.894;2023-05-16T02:16:56;100163.77;;;16.84;52.38
43681;BME280;29281;50.356;30.894;2023-05-16T02:18:01;100160.80;;;16.87;52.70
43681;BME280;29281;50.356;30.894;2023-05-16T02:19:03;100160.66;;;16.88;51.98
43681;BME280;29281;50.356;30.894;2023-05-16T02:20:08;100161.78;;;16.86;52.52
43681;BME280;29281;50.356;30.894;2023-05-16T02:21:13;100158.00;;;16.79;52.73
43681;BME280;29281;50.356;30.894;2023-05-16T02:22:16;100160.27;;;16.74;52.54
43681;BME280;29281;50.356;30.894;2023-05-16T02:23:20;100159.56;;;16.72;52.90
43681;BME280;29281;50.356;30.894;2023-05-16T02:24:24;100157.44;;;16.75;52.81
43681;BME280;29281;50.356;30.894;2023-05-16T02:25:29;100160.41;;;16.72;52.69
43681;BME280;29281;50.356;30.894;2023-05-16T02:26:32;100153.48;;;16.70;53.05
43681;BME280;29281;50.356;30.894;2023-05-16T02:27:35;100146.30;;;16.70;52.95
43681;BME280;29281;50.356;30.894;2023-05-16T02:28:39;100152.92;;;16.66;53.10
43681;BME280;29281;50.356;30.894;2023-05-16T02:29:46;100149.25;;;16.58;53.16
43681;BME280;29281;50.356;30.894;2023-05-16T02:30:56;100149.82;;;16.61;53.46
43681;BME280;29281;50.356;30.894;2023-05-16T02:32:01;100153.34;;;16.62;53.06
43681;BME280;29281;50.356;30.894;2023-05-16T02:33:05;100152.78;;;16.58;53.49
43681;BME280;29281;50.356;30.894;2023-05-16T02:34:08;100149.53;;;16.54;53.12
43681;BME280;29281;50.356;30.894;2023-05-16T02:35:12;100149.53;;;16.54;54.32
43681;BME280;29281;50.356;30.894;2023-05-16T02:36:15;100162.37;;;16.51;53.96
43681;BME280;29281;50.356;30.894;2023-05-16T02:37:19;100149.28;;;16.48;54.62
43681;BME280;29281;50.356;30.894;2023-05-16T02:38:23;100158.42;;;16.55;53.43
43681;BME280;29281;50.356;30.894;2023-05-16T02:39:30;100158.00;;;16.60;53.69
43681;BME280;29281;50.356;30.894;2023-05-16T02:40:35;100157.86;;;16.61;53.32
43681;BME280;29281;50.356;30.894;2023-05-16T02:41:38;100159.45;;;16.64;53.42
43681;BME280;29281;50.356;30.894;2023-05-16T02:42:45;100163.66;;;16.66;53.44
43681;BME280;29281;50.356;30.894;2023-05-16T02:43:50;100160.27;;;16.74;53.21
43681;BME280;29281;50.356;30.894;2023-05-16T02:44:54;100163.20;;;16.80;53.22
43681;BME280;29281;50.356;30.894;2023-05-16T02:45:58;100150.91;;;16.87;52.76
43681;BME280;29281;50.356;30.894;2023-05-16T02:47:02;100159.52;;;16.91;52.84
43681;BME280;29281;50.356;30.894;2023-05-16T02:48:05;100159.66;;;16.90;52.68
43681;BME280;29281;50.356;30.894;2023-05-16T02:49:12;100157.97;;;16.88;52.56
43681;BME280;29281;50.356;30.894;2023-05-16T02:50:15;100163.19;;;16.90;52.65
43681;BME280;29281;50.356;30.894;2023-05-16T02:51:19;100158.81;;;16.89;53.18
43681;BME280;29281;50.356;30.894;2023-05-16T02:52:24;100154.72;;;16.95;52.61
43681;BME280;29281;50.356;30.894;2023-05-16T02:53:27;100156.55;;;16.94;52.78
43681;BME280;29281;50.356;30.894;2023-05-16T02:54:30;100161.03;;;17.03;52.20
43681;BME280;29281;50.356;30.894;2023-05-16T02:55:33;100160.33;;;17.01;52.89
43681;BME280;29281;50.356;30.894;2023-05-16T02:56:36;100158.48;;;17.02;52.22
43681;BME280;29281;50.356;30.894;2023-05-16T02:57:39;100164.56;;;17.04;52.39
43681;BME280;29281;50.356;30.894;2023-05-16T02:58:45;100162.67;;;17.14;52.69
43681;BME280;29281;50.356;30.894;2023-05-16T02:59:49;100165.36;;;17.14;52.15
43681;BME280;29281;50.356;30.894;2023-05-16T03:00:52;100162.58;;;17.06;51.52
43681;BME280;29281;50.356;30.894;2023-05-16T03:01:56;100160.19;;;17.03;52.24
43681;BME280;29281;50.356;30.894;2023-05-16T03:03:03;100168.09;;;17.04;52.83
43681;BME280;29281;50.356;30.894;2023-05-16T03:04:07;100168.65;;;17.08;51.90
43681;BME280;29281;50.356;30.894;2023-05-16T03:05:12;100161.55;;;17.16;51.71
43681;BME280;29281;50.356;30.894;2023-05-16T03:06:16;100168.19;;;17.12;52.78
43681;BME280;29281;50.356;30.894;2023-05-16T03:07:19;100166.34;;;17.13;52.53
43681;BME280;29281;50.356;30.894;2023-05-16T03:08:22;100164.08;;;17.18;52.29
43681;BME280;29281;50.356;30.894;2023-05-16T03:09:25;100166.67;;;17.10;52.25
43681;BME280;29281;50.356;30.894;2023-05-16T03:10:28;100166.49;;;17.11;52.15
43681;BME280;29281;50.356;30.894;2023-05-16T03:11:33;100169.64;;;17.07;52.04
43681;BME280;29281;50.356;30.894;2023-05-16T03:12:38;100159.61;;;17.09;53.15
43681;BME280;29281;50.356;30.894;2023-05-16T03:13:42;100167.47;;;17.20;52.57
43681;BME280;29281;50.356;30.894;2023-05-16T03:14:46;100169.72;;;17.25;52.42
43681;BME280;29281;50.356;30.894;2023-05-16T03:15:50;100161.20;;;17.29;52.03
43681;BME280;29281;50.356;30.894;2023-05-16T03:16:53;100164.01;;;17.37;52.11
43681;BME280;29281;50.356;30.894;2023-05-16T03:17:56;100172.70;;;17.49;52.00
43681;BME280;29281;50.356;30.894;2023-05-16T03:19:00;100167.89;;;17.52;52.23
43681;BME280;29281;50.356;30.894;2023-05-16T03:20:03;100169.03;;;17.50;51.86
43681;BME280;29281;50.356;30.894;2023-05-16T03:21:08;100170.31;;;17.46;52.10
43681;BME280;29281;50.356;30.894;2023-05-16T03:22:12;100163.11;;;17.46;52.15
43681;BME280;29281;50.356;30.894;2023-05-16T03:23:21;100163.31;;;17.35;52.36
43681;BME280;29281;50.356;30.894;2023-05-16T03:24:26;100169.32;;;17.47;52.35
43681;BME280;29281;50.356;30.894;2023-05-16T03:25:32;100162.89;;;17.57;51.76
43681;BME280;29281;50.356;30.894;2023-05-16T03:26:35;100168.03;;;17.51;52.15
43681;BME280;29281;50.356;30.894;2023-05-16T03:27:38;100163.22;;;17.54;52.03
43681;BME280;29281;50.356;30.894;2023-05-16T03:28:40;100158.22;;;17.59;52.15
43681;BME280;29281;50.356;30.894;2023-05-16T03:29:44;100158.70;;;17.55;51.63
43681;BME280;29281;50.356;30.894;2023-05-16T03:30:47;100156.38;;;17.60;52.44
43681;BME280;29281;50.356;30.894;2023-05-16T03:31:50;100155.69;;;17.58;52.13
43681;BME280;29281;50.356;30.894;2023-05-16T03:32:54;100157.93;;;17.63;52.22
43681;BME280;29281;50.356;30.894;2023-05-16T03:33:57;100162.89;;;17.67;52.13
43681;BME280;29281;50.356;30.894;2023-05-16T03:35:00;100160.62;;;17.63;52.17
43681;BME280;29281;50.356;30.894;2023-05-16T03:36:04;100164.95;;;17.73;51.95
43681;BME280;29281;50.356;30.894;2023-05-16T03:37:07;100161.38;;;17.82;51.62
43681;BME280;29281;50.356;30.894;2023-05-16T03:38:15;100164.22;;;17.81;50.84
43681;BME280;29281;50.356;30.894;2023-05-16T03:39:19;100163.77;;;17.85;50.83
43681;BME280;29281;50.356;30.894;2023-05-16T03:40:24;100169.44;;;17.82;50.37
43681;BME280;29281;50.356;30.894;2023-05-16T03:41:28;100163.92;;;17.84;50.27
43681;BME280;29281;50.356;30.894;2023-05-16T03:42:30;100163.08;;;17.83;51.12
43681;BME280;29281;50.356;30.894;2023-05-16T03:43:34;100154.24;;;17.91;51.96
43681;BME280;29281;50.356;30.894;2023-05-16T03:44:38;100164.22;;;17.81;50.59
43681;BME280;29281;50.356;30.894;2023-05-16T03:45:41;100157.08;;;17.89;50.66
43681;BME280;29281;50.356;30.894;2023-05-16T03:46:48;100162.59;;;17.88;50.12
43681;BME280;29281;50.356;30.894;2023-05-16T03:47:53;100158.92;;;17.89;49.87
43681;BME280;29281;50.356;30.894;2023-05-16T03:48:56;100165.94;;;18.00;50.63
43681;BME280;29281;50.356;30.894;2023-05-16T03:50:00;100164.86;;;18.10;50.22
43681;BME280;29281;50.356;30.894;2023-05-16T03:51:03;100163.47;;;18.06;49.45
43681;BME280;29281;50.356;30.894;2023-05-16T03:52:07;100167.23;;;17.96;50.39
43681;BME280;29281;50.356;30.894;2023-05-16T03:53:10;100163.77;;;17.85;49.72
43681;BME280;29281;50.356;30.894;2023-05-16T03:54:14;100164.69;;;17.94;49.21
43681;BME280;29281;50.356;30.894;2023-05-16T03:55:17;100162.53;;;17.80;49.44
43681;BME280;29281;50.356;30.894;2023-05-16T03:56:21;100169.95;;;17.68;50.68
43681;BME280;29281;50.356;30.894;2023-05-16T03:57:24;100166.91;;;17.81;50.68
43681;BME280;29281;50.356;30.894;2023-05-16T03:58:28;100161.92;;;18.04;49.46
43681;BME280;29281;50.356;30.894;2023-05-16T03:59:30;100169.23;;;18.11;49.26
43681;BME280;29281;50.356;30.894;2023-05-16T04:00:35;100172.83;;;18.20;49.84
43681;BME280;29281;50.356;30.894;2023-05-16T04:01:39;100167.70;;;18.26;49.50
43681;BME280;29281;50.356;30.894;2023-05-16T04:02:47;100164.92;;;18.18;49.88
43681;BME280;29281;50.356;30.894;2023-05-16T04:03:51;100173.77;;;18.28;49.15
43681;BME280;29281;50.356;30.894;2023-05-16T04:04:57;100171.69;;;18.22;48.86
43681;BME280;29281;50.356;30.894;2023-05-16T04:06:01;100175.52;;;18.20;48.69
43681;BME280;29281;50.356;30.894;2023-05-16T04:07:03;100166.78;;;18.00;49.23
43681;BME280;29281;50.356;30.894;2023-05-16T04:08:09;100162.84;;;17.95;49.51
43681;BME280;29281;50.356;30.894;2023-05-16T04:09:13;100169.23;;;18.11;49.83
43681;BME280;29281;50.356;30.894;2023-05-16T04:10:15;100171.69;;;18.22;49.54
43681;BME280;29281;50.356;30.894;2023-05-16T04:11:20;100170.08;;;18.12;49.03
43681;BME280;29281;50.356;30.894;2023-05-16T04:12:24;100168.39;;;18.11;50.22
43681;BME280;29281;50.356;30.894;2023-05-16T04:13:28;100169.94;;;18.13;50.33
43681;BME280;29281;50.356;30.894;2023-05-16T04:14:33;100172.53;;;18.23;49.57
43681;BME280;29281;50.356;30.894;2023-05-16T04:15:37;100171.63;;;18.32;49.34
43681;BME280;29281;50.356;30.894;2023-05-16T04:16:41;100176.31;;;18.30;49.13
43681;BME280;29281;50.356;30.894;2023-05-16T04:17:44;100174.38;;;18.22;48.96
43681;BME280;29281;50.356;30.894;2023-05-16T04:18:49;100173.08;;;18.26;48.52
43681;BME280;29281;50.356;30.894;2023-05-16T04:19:51;100178.45;;;18.26;48.95
43681;BME280;29281;50.356;30.894;2023-05-16T04:20:54;100177.06;;;18.22;48.79
43681;BME280;29281;50.356;30.894;2023-05-16T04:21:58;100183.44;;;18.21;49.30
43681;BME280;29281;50.356;30.894;2023-05-16T04:23:00;100186.37;;;18.28;49.97
43681;BME280;29281;50.356;30.894;2023-05-16T04:24:03;100194.34;;;18.20;48.19
43681;BME280;29281;50.356;30.894;2023-05-16T04:25:07;100193.05;;;18.24;48.59
43681;BME280;29281;50.356;30.894;2023-05-16T04:26:11;100193.20;;;18.40;47.60
43681;BME280;29281;50.356;30.894;2023-05-16T04:27:15;100203.55;;;18.35;47.56
43681;BME280;29281;50.356;30.894;2023-05-16T04:28:19;100206.48;;;18.24;47.48
43681;BME280;29281;50.356;30.894;2023-05-16T04:29:22;100200.50;;;18.30;47.10
43681;BME280;29281;50.356;30.894;2023-05-16T04:30:26;100196.48;;;18.34;47.80
43681;BME280;29281;50.356;30.894;2023-05-16T04:31:29;100202.34;;;18.30;47.38
43681;BME280;29281;50.356;30.894;2023-05-16T04:32:33;100204.10;;;18.39;46.86
43681;BME280;29281;50.356;30.894;2023-05-16T04:33:39;100205.80;;;18.40;46.12
43681;BME280;29281;50.356;30.894;2023-05-16T04:34:42;100203.34;;;18.46;46.54
43681;BME280;29281;50.356;30.894;2023-05-16T04:35:46;100204.80;;;18.41;46.27
43681;BME280;29281;50.356;30.894;2023-05-16T04:36:51;100211.08;;;18.49;45.23
43681;BME280;29281;50.356;30.894;2023-05-16T04:37:55;100199.73;;;18.73;45.81
43681;BME280;29281;50.356;30.894;2023-05-16T04:38:58;100202.95;;;18.77;45.81
43681;BME280;29281;50.356;30.894;2023-05-16T04:40:01;100213.28;;;18.64;44.88
43681;BME280;29281;50.356;30.894;2023-05-16T04:41:05;100215.95;;;18.46;45.38
43681;BME280;29281;50.356;30.894;2023-05-16T04:42:08;100219.23;;;18.57;45.33
43681;BME280;29281;50.356;30.894;2023-05-16T04:43:12;100214.94;;;18.65;44.60
43681;BME280;29281;50.356;30.894;2023-05-16T04:44:15;100219.71;;;18.71;44.49
43681;BME280;29281;50.356;30.894;2023-05-16T04:45:21;100219.45;;;18.82;45.10
43681;BME280;29281;50.356;30.894;2023-05-16T04:46:24;100215.07;;;18.81;45.08
43681;BME280;29281;50.356;30.894;2023-05-16T04:47:27;100216.77;;;18.82;44.89
43681;BME280;29281;50.356;30.894;2023-05-16T04:48:29;100226.22;;;18.86;44.43
43681;BME280;29281;50.356;30.894;2023-05-16T04:49:33;100222.86;;;18.66;44.92
43681;BME280;29281;50.356;30.894;2023-05-16T04:50:35;100231.27;;;18.63;45.59
43681;BME280;29281;50.356;30.894;2023-05-16T04:51:39;100229.57;;;18.62;45.62
43681;BME280;29281;50.356;30.894;2023-05-16T04:52:42;100219.81;;;18.61;45.41
43681;BME280;29281;50.356;30.894;2023-05-16T04:53:45;100229.23;;;18.47;45.48
43681;BME280;29281;50.356;30.894;2023-05-16T04:54:49;100217.71;;;18.73;45.33
43681;BME280;29281;50.356;30.894;2023-05-16T04:55:54;100216.56;;;18.75;45.74
43681;BME280;29281;50.356;30.894;2023-05-16T04:56:56;100213.77;;;18.85;45.76
43681;BME280;29281;50.356;30.894;2023-05-16T04:58:00;100224.07;;;18.89;44.66
43681;BME280;29281;50.356;30.894;2023-05-16T04:59:05;100214.69;;;18.93;45.18
43681;BME280;29281;50.356;30.894;2023-05-16T05:00:08;100212.45;;;18.89;44.83
43681;BME280;29281;50.356;30.894;2023-05-16T05:01:14;100215.07;;;18.81;45.43
43681;BME280;29281;50.356;30.894;2023-05-16T05:02:18;100213.50;;;18.96;45.52
43681;BME280;29281;50.356;30.894;2023-05-16T05:03:21;100212.89;;;19.02;44.95
43681;BME280;29281;50.356;30.894;2023-05-16T05:04:24;100218.84;;;19.14;44.85
43681;BME280;29281;50.356;30.894;2023-05-16T05:05:27;100212.92;;;19.10;43.98
43681;BME280;29281;50.356;30.894;2023-05-16T05:06:32;100220.16;;;19.10;44.52
43681;BME280;29281;50.356;30.894;2023-05-16T05:07:34;100212.92;;;19.10;44.55
43681;BME280;29281;50.356;30.894;2023-05-16T05:08:38;100220.34;;;19.08;44.32
43681;BME280;29281;50.356;30.894;2023-05-16T05:09:41;100204.95;;;19.26;44.77
43681;BME280;29281;50.356;30.894;2023-05-16T05:10:47;100212.77;;;19.38;44.19
43681;BME280;29281;50.356;30.894;2023-05-16T05:11:50;100209.23;;;19.37;44.25
43681;BME280;29281;50.356;30.894;2023-05-16T05:12:54;100216.74;;;19.51;43.89
43681;BME280;29281;50.356;30.894;2023-05-16T05:13:57;100211.22;;;19.61;44.09
43681;BME280;29281;50.356;30.894;2023-05-16T05:15:01;100211.22;;;19.61;43.75
43681;BME280;29281;50.356;30.894;2023-05-16T05:16:06;100220.53;;;19.75;43.83
43681;BME280;29281;50.356;30.894;2023-05-16T05:17:12;100215.92;;;19.59;43.93
43681;BME280;29281;50.356;30.894;2023-05-16T05:18:16;100217.30;;;19.63;43.70
43681;BME280;29281;50.356;30.894;2023-05-16T05:19:20;100219.97;;;19.55;43.63
43681;BME280;29281;50.356;30.894;2023-05-16T05:20:25;100218.00;;;19.73;43.56
43681;BME280;29281;50.356;30.894;2023-05-16T05:21:29;100218.37;;;19.78;43.49
43681;BME280;29281;50.356;30.894;2023-05-16T05:22:32;100219.27;;;19.95;43.46
43681;BME280;29281;50.356;30.894;2023-05-16T05:23:36;100225.19;;;19.98;42.97
43681;BME280;29281;50.356;30.894;2023-05-16T05:24:39;100218.00;;;19.73;42.75
43681;BME280;29281;50.356;30.894;2023-05-16T05:25:44;100227.59;;;19.68;42.70
43681;BME280;29281;50.356;30.894;2023-05-16T05:26:49;100218.89;;;19.82;43.82
43681;BME280;29281;50.356;30.894;2023-05-16T05:27:53;100218.94;;;19.56;42.88
43681;BME280;29281;50.356;30.894;2023-05-16T05:28:56;100221.52;;;19.65;43.83
43681;BME280;29281;50.356;30.894;2023-05-16T05:30:02;100219.30;;;19.61;43.14
43681;BME280;29281;50.356;30.894;2023-05-16T05:31:09;100223.05;;;19.68;43.34
43681;BME280;29281;50.356;30.894;2023-05-16T05:32:13;100222.55;;;19.73;42.93
43681;BME280;29281;50.356;30.894;2023-05-16T05:33:16;100230.63;;;19.73;42.95
43681;BME280;29281;50.356;30.894;2023-05-16T05:34:23;100221.38;;;19.75;43.35
43681;BME280;29281;50.356;30.894;2023-05-16T05:35:25;100225.08;;;19.74;43.34
43681;BME280;29281;50.356;30.894;2023-05-16T05:36:31;100227.14;;;19.80;44.19
43681;BME280;29281;50.356;30.894;2023-05-16T05:37:37;100225.81;;;19.84;43.09
43681;BME280;29281;50.356;30.894;2023-05-16T05:38:41;100233.22;;;19.90;43.90
43681;BME280;29281;50.356;30.894;2023-05-16T05:39:45;100235.59;;;19.85;43.59
43681;BME280;29281;50.356;30.894;2023-05-16T05:40:48;100234.23;;;19.89;43.84
43681;BME280;29281;50.356;30.894;2023-05-16T05:41:51;100236.66;;;20.00;44.31
43681;BME280;29281;50.356;30.894;2023-05-16T05:42:54;100233.11;;;20.00;43.07
43681;BME280;29281;50.356;30.894;2023-05-16T05:43:58;100228.89;;;20.06;44.43
43681;BME280;29281;50.356;30.894;2023-05-16T05:45:01;100238.03;;;20.13;44.03
43681;BME280;29281;50.356;30.894;2023-05-16T05:46:06;100246.23;;;20.03;41.16